Time;durP1;ratioP1;P1;durP2;ratioP2;P2;SDS_P1;SDS_P2;PMS_P1;PMS_P2;Temp;Humidity;BMP_temperature;BMP_pressure;BME280_temperature;BME280_humidity;BME280_pressure;Samples;Min_cycle;Max_cycle;Signal;HPM_P1;HPM_P2
2023/12/19 00:01:20;;;;;;;91.60;52.25;;;128.10;2252.80;;;;;;5082357;28;20356;-65
2023/12/19 00:03:46;;;;;;;95.03;58.50;;;128.10;2252.80;;;;;;5076609;28;20055;-64
2023/12/19 00:06:12;;;;;;;130.30;74.70;;;128.10;2252.80;;;;;;5073819;28;20024;-65
2023/12/19 00:08:38;;;;;;;115.93;68.10;;;128.10;2252.80;;;;;;5087108;28;20081;-66
2023/12/19 00:11:04;;;;;;;82.00;47.95;;;128.10;2252.80;;;;;;5082185;28;20486;-66
2023/12/19 00:13:30;;;;;;;81.38;47.35;;;128.10;2252.80;;;;;;5085167;28;20027;-64
2023/12/19 00:15:56;;;;;;;102.50;53.08;;;128.10;2252.80;;;;;;5079385;28;20615;-66
2023/12/19 00:18:22;;;;;;;120.40;60.88;;;128.10;2252.80;;;;;;5074509;28;20103;-67
2023/12/19 00:20:48;;;;;;;66.20;32.88;;;128.10;2252.80;;;;;;5069009;28;20115;-68
2023/12/19 00:23:14;;;;;;;39.80;22.80;;;128.10;2252.80;;;;;;5081997;28;20150;-65
2023/12/19 00:25:39;;;;;;;146.43;66.15;;;128.10;2252.80;;;;;;5078490;28;20028;-65
2023/12/19 00:28:05;;;;;;;460.17;197.00;;;128.10;2252.80;;;;;;5086023;28;20489;-65
2023/12/19 00:30:31;;;;;;;64.25;28.80;;;128.00;2252.80;;;;;;5073792;28;20139;-65
2023/12/19 00:32:57;;;;;;;164.15;68.55;;;128.00;2252.80;;;;;;5069096;28;20024;-65
2023/12/19 00:35:23;;;;;;;129.75;53.72;;;103.30;2227.20;;;;;;5069478;28;20102;-67
2023/12/19 00:37:49;;;;;;;318.52;139.02;;;103.30;2227.20;;;;;;5069571;28;20053;-66
2023/12/19 00:40:15;;;;;;;310.98;132.98;;;103.30;2227.20;;;;;;5084941;28;20097;-66
2023/12/19 00:42:42;;;;;;;397.88;170.65;;;103.30;2227.20;;;;;;5079620;28;20078;-66
2023/12/19 00:45:08;;;;;;;72.13;30.23;;;103.30;2227.20;;;;;;5085395;28;20028;-64
2023/12/19 00:47:33;;;;;;;57.10;31.75;;;103.30;2227.20;;;;;;5072201;28;20021;-67
2023/12/19 00:49:59;;;;;;;32.58;20.55;;;103.20;2227.20;;;;;;5069344;28;20036;-66
2023/12/19 00:52:27;;;;;;;49.22;23.92;;;103.10;2227.20;;;;;;5081175;28;20081;-67
2023/12/19 00:54:53;;;;;;;30.80;19.17;;;103.10;2227.20;;;;;;5086540;28;20021;-65
2023/12/19 00:57:19;;;;;;;31.98;18.92;;;103.10;2227.20;;;;;;5080962;28;20119;-65
2023/12/19 00:59:44;;;;;;;29.92;17.75;;;103.00;2227.20;;;;;;5086844;28;20374;-65
2023/12/19 01:02:10;;;;;;;30.92;17.60;;;103.00;2227.20;;;;;;5090770;28;20036;-66
2023/12/19 01:04:36;;;;;;;35.53;19.63;;;103.00;2227.20;;;;;;5088467;28;20048;-65
2023/12/19 01:07:02;;;;;;;20.48;11.95;;;102.90;2227.20;;;;;;5090822;28;20435;-65
2023/12/19 01:09:28;;;;;;;24.92;14.70;;;102.90;2227.20;;;;;;5089678;28;20023;-67
2023/12/19 01:11:54;;;;;;;41.10;25.30;;;103.00;2227.20;;;;;;5091241;28;20090;-66
2023/12/19 01:14:19;;;;;;;36.90;21.50;;;102.90;2227.20;;;;;;5087447;28;20029;-65
2023/12/19 01:16:46;;;;;;;56.67;29.80;;;102.90;2227.20;;;;;;5071824;28;20119;-66
2023/12/19 01:19:11;;;;;;;47.90;26.60;;;102.90;2227.20;;;;;;5071934;28;20066;-65
2023/12/19 01:21:37;;;;;;;25.52;15.70;;;102.80;2227.20;;;;;;5071847;28;20028;-64
2023/12/19 01:24:03;;;;;;;43.80;25.52;;;102.70;2227.20;;;;;;5073010;28;20058;-64
2023/12/19 01:26:32;;;;;;;42.70;25.05;;;102.80;2227.20;;;;;;5071014;28;20020;-64
2023/12/19 01:28:57;;;;;;;24.27;15.05;;;102.70;2227.20;;;;;;5084589;28;20028;-65
2023/12/19 01:31:23;;;;;;;17.27;8.80;;;102.70;2227.20;;;;;;5071195;28;20047;-66
2023/12/19 01:33:49;;;;;;;26.83;13.65;;;102.70;2227.20;;;;;;5071766;28;20104;-64
2023/12/19 01:36:15;;;;;;;49.80;26.58;;;102.80;2227.20;;;;;;5071577;28;20116;-63
2023/12/19 01:38:40;;;;;;;109.30;53.20;;;102.80;2227.20;;;;;;5072504;28;20154;-65
2023/12/19 01:41:06;;;;;;;108.82;49.17;;;103.00;2227.20;;;;;;5071128;28;20078;-64
2023/12/19 01:43:32;;;;;;;111.70;49.30;;;103.00;2227.20;;;;;;5074050;28;20016;-65
2023/12/19 01:45:57;;;;;;;51.95;25.05;;;103.00;2227.20;;;;;;5091243;28;20036;-65
2023/12/19 01:48:26;;;;;;;82.50;33.60;;;103.10;2227.20;;;;;;5087860;28;20048;-67
2023/12/19 01:50:52;;;;;;;155.30;57.72;;;103.10;2227.20;;;;;;5081235;28;20420;-66
2023/12/19 01:53:19;;;;;;;112.30;52.72;;;103.20;2227.20;;;;;;5087616;28;20025;-64
2023/12/19 01:55:46;;;;;;;62.80;32.40;;;103.10;2227.20;;;;;;5070077;28;20024;-66
2023/12/19 01:58:12;;;;;;;102.28;52.33;;;103.10;2227.20;;;;;;5068663;28;20047;-66
2023/12/19 02:00:38;;;;;;;32.83;18.67;;;103.20;2227.20;;;;;;5086240;28;20452;-65
2023/12/19 02:03:04;;;;;;;28.08;18.42;;;103.10;2227.20;;;;;;5072793;28;20112;-67
2023/12/19 02:05:32;;;;;;;36.25;21.13;;;103.10;2227.20;;;;;;5081827;28;20044;-66
2023/12/19 02:07:58;;;;;;;29.55;15.85;;;103.20;2227.20;;;;;;5090973;28;20415;-67
2023/12/19 02:10:25;;;;;;;27.85;16.63;;;103.20;2227.20;;;;;;5079057;28;20459;-67
2023/12/19 02:12:51;;;;;;;26.58;13.32;;;103.10;2227.20;;;;;;5089347;28;20028;-66
2023/12/19 02:15:17;;;;;;;17.63;9.48;;;103.10;2227.20;;;;;;5090684;28;20027;-66
2023/12/19 02:17:43;;;;;;;37.53;19.65;;;103.00;2227.20;;;;;;5090830;28;20124;-66
2023/12/19 02:20:09;;;;;;;60.72;29.45;;;103.10;2227.20;;;;;;5090621;28;20020;-65
2023/12/19 02:22:35;;;;;;;48.33;26.55;;;103.00;2227.20;;;;;;5090531;28;20554;-66
2023/12/19 02:25:01;;;;;;;64.95;34.10;;;103.00;2227.20;;;;;;5077909;28;20021;-66
2023/12/19 02:27:27;;;;;;;69.43;34.50;;;103.00;2227.20;;;;;;5086718;28;20051;-65
2023/12/19 02:29:53;;;;;;;84.60;43.08;;;103.00;2227.20;;;;;;5091015;28;20025;-66
2023/12/19 02:32:19;;;;;;;61.65;31.73;;;103.10;2227.20;;;;;;5086928;28;20036;-66
2023/12/19 02:34:45;;;;;;;42.55;25.33;;;103.10;2227.20;;;;;;5065538;28;20031;-67
2023/12/19 02:37:11;;;;;;;23.52;14.13;;;103.10;2227.20;;;;;;5070378;28;20130;-66
2023/12/19 02:39:37;;;;;;;36.45;20.77;;;103.10;2227.20;;;;;;5090491;28;20099;-65
2023/12/19 02:42:03;;;;;;;28.42;17.55;;;103.10;2227.20;;;;;;5060261;28;20370;-66
2023/12/19 02:44:29;;;;;;;44.08;23.73;;;103.10;2227.20;;;;;;5080688;28;20032;-66
2023/12/19 02:46:54;;;;;;;31.45;17.40;;;103.00;2227.20;;;;;;5076667;28;20032;-67
2023/12/19 02:51:56;;;;;;;15.80;9.75;;;102.90;2227.20;;;;;;5083917;22;20053;-72
2023/12/19 02:54:21;;;;;;;13.43;7.05;;;103.00;2227.20;;;;;;5048020;28;20048;-72
2023/12/19 02:56:47;;;;;;;18.48;11.13;;;103.00;2227.20;;;;;;5032963;28;20203;-73
2023/12/19 02:59:13;;;;;;;16.77;8.70;;;103.00;2227.20;;;;;;5050429;28;20029;-72
2023/12/19 03:01:38;;;;;;;14.75;7.47;;;103.00;2227.20;;;;;;5053748;28;20020;-73
2023/12/19 03:04:04;;;;;;;82.97;40.85;;;103.00;2227.20;;;;;;5041696;28;20026;-72
2023/12/19 03:06:30;;;;;;;47.22;25.58;;;102.90;2227.20;;;;;;5033349;28;20017;-74
2023/12/19 03:08:57;;;;;;;24.58;14.15;;;102.90;2227.20;;;;;;5047663;28;20474;-71
2023/12/19 03:11:24;;;;;;;14.55;8.45;;;102.90;2227.20;;;;;;5045547;28;20395;-71
2023/12/19 03:13:49;;;;;;;56.97;29.67;;;102.80;2227.20;;;;;;5037777;28;20017;-73
2023/12/19 03:16:15;;;;;;;30.55;16.55;;;102.70;2227.20;;;;;;5029977;28;20509;-72
2023/12/19 03:18:41;;;;;;;50.80;23.95;;;102.70;2227.20;;;;;;5029476;28;20499;-73
2023/12/19 03:21:08;;;;;;;144.57;71.75;;;102.70;2227.20;;;;;;5048034;28;20021;-72
2023/12/19 03:23:34;;;;;;;87.68;46.70;;;102.70;2227.20;;;;;;5046886;28;20053;-72
2023/12/19 03:25:59;;;;;;;37.28;20.98;;;102.80;2227.20;;;;;;5048137;28;20113;-73
2023/12/19 03:28:25;;;;;;;56.92;30.30;;;102.80;2227.20;;;;;;5047078;28;20021;-72
2023/12/19 03:30:51;;;;;;;41.92;20.95;;;102.90;2227.20;;;;;;5048037;28;20025;-73
2023/12/19 03:33:17;;;;;;;25.10;15.07;;;102.90;2227.20;;;;;;5048874;28;20017;-73
2023/12/19 03:35:43;;;;;;;52.58;28.42;;;103.00;2227.20;;;;;;5049165;28;20021;-73
2023/12/19 03:38:08;;;;;;;34.67;20.60;;;103.10;2227.20;;;;;;5036820;28;20372;-73
2023/12/19 03:40:35;;;;;;;17.38;10.32;;;103.00;2227.20;;;;;;5036151;28;20028;-72
2023/12/19 03:43:02;;;;;;;16.25;9.85;;;102.90;2227.20;;;;;;5049198;28;20060;-72
2023/12/19 03:45:28;;;;;;;29.05;16.80;;;103.00;2227.20;;;;;;5049144;28;20029;-72
2023/12/19 03:47:53;;;;;;;67.75;38.00;;;102.80;2227.20;;;;;;5048921;28;20166;-72
2023/12/19 03:50:19;;;;;;;18.77;10.05;;;102.80;2227.20;;;;;;5049129;28;20021;-72
2023/12/19 03:52:45;;;;;;;11.80;7.55;;;102.70;2227.20;;;;;;5048872;28;20049;-72
2023/12/19 03:55:11;;;;;;;20.35;17.20;;;102.70;2227.20;;;;;;5049127;28;20433;-72
2023/12/19 03:57:37;;;;;;;100.75;45.53;;;102.70;2227.20;;;;;;5049120;28;20054;-73
2023/12/19 04:00:04;;;;;;;69.85;30.75;;;102.70;2227.20;;;;;;5048961;28;20462;-72
2023/12/19 04:02:30;;;;;;;65.45;30.70;;;102.60;2227.20;;;;;;5031488;28;20021;-73
2023/12/19 04:04:55;;;;;;;16.80;9.30;;;102.70;2227.20;;;;;;5048624;28;20024;-73
2023/12/19 04:07:21;;;;;;;12.15;7.13;;;102.60;2227.20;;;;;;5049012;28;20024;-72
2023/12/19 04:09:47;;;;;;;131.20;55.38;;;102.60;2227.20;;;;;;5042921;28;20021;-72
2023/12/19 04:12:14;;;;;;;19.48;11.05;;;102.60;2227.20;;;;;;5042886;28;20395;-74
2023/12/19 04:14:39;;;;;;;23.50;17.35;;;102.70;2227.20;;;;;;5049074;28;20479;-73
2023/12/19 04:17:05;;;;;;;208.88;108.07;;;102.70;2227.20;;;;;;5048733;28;20083;-73
2023/12/19 04:19:31;;;;;;;82.22;41.67;;;102.70;2227.20;;;;;;5052504;28;20494;-73
2023/12/19 04:21:57;;;;;;;14.70;9.60;;;102.60;2227.20;;;;;;5052719;28;20386;-73
2023/12/19 04:24:25;;;;;;;18.60;9.55;;;102.70;2227.20;;;;;;5052617;28;20039;-72
2023/12/19 04:26:51;;;;;;;13.20;8.38;;;102.60;2227.20;;;;;;5052737;28;20079;-72
2023/12/19 04:29:17;;;;;;;16.10;8.25;;;102.60;2227.20;;;;;;5052653;28;20045;-72
2023/12/19 04:31:43;;;;;;;17.90;10.98;;;102.60;2227.20;;;;;;5034817;28;20510;-73
2023/12/19 04:34:08;;;;;;;47.42;27.88;;;102.60;2227.20;;;;;;5052383;28;20028;-72
2023/12/19 04:36:34;;;;;;;53.72;30.38;;;102.60;2227.20;;;;;;5052534;28;20425;-72
2023/12/19 04:39:00;;;;;;;51.72;30.58;;;102.60;2227.20;;;;;;5052410;28;20029;-72
2023/12/19 04:41:26;;;;;;;41.85;28.25;;;102.70;2227.20;;;;;;5041208;28;20410;-73
2023/12/19 04:43:52;;;;;;;23.65;14.13;;;102.70;2227.20;;;;;;5051060;28;20032;-75
2023/12/19 04:46:17;;;;;;;13.13;7.80;;;102.60;2227.20;;;;;;5052426;28;20087;-73
2023/12/19 04:48:43;;;;;;;15.15;10.13;;;102.50;2227.20;;;;;;5051858;28;20032;-72
2023/12/19 04:51:22;;;;;;;20.88;12.73;;;102.50;2227.20;;;;;;5052403;28;20059;-73
2023/12/19 04:53:49;;;;;;;21.77;13.20;;;102.50;2227.20;;;;;;5039350;28;20167;-73
2023/12/19 04:56:16;;;;;;;106.03;56.78;;;102.50;2227.20;;;;;;5051833;28;20501;-73
2023/12/19 04:58:44;;;;;;;186.95;91.57;;;102.50;2227.20;;;;;;5051773;28;20025;-74
2023/12/19 05:01:11;;;;;;;413.58;197.07;;;102.50;2227.20;;;;;;5034017;28;20039;-73
2023/12/19 05:03:39;;;;;;;362.83;178.63;;;102.50;2227.20;;;;;;5051773;28;20024;-73
2023/12/19 05:06:06;;;;;;;130.30;72.18;;;102.50;2227.20;;;;;;5051543;28;20021;-73
2023/12/19 05:08:32;;;;;;;44.13;23.75;;;102.50;2227.20;;;;;;5051995;28;20048;-73
2023/12/19 05:10:57;;;;;;;43.05;24.10;;;102.50;2227.20;;;;;;5046548;28;20467;-71
2023/12/19 05:13:23;;;;;;;60.50;34.50;;;102.50;2227.20;;;;;;5043837;28;20028;-72
2023/12/19 05:15:50;;;;;;;67.75;39.13;;;102.60;2227.20;;;;;;5051759;28;20028;-72
2023/12/19 05:18:18;;;;;;;66.53;40.80;;;102.50;2227.20;;;;;;5051634;28;20025;-71
2023/12/19 05:20:44;;;;;;;58.40;35.10;;;102.50;2227.20;;;;;;5051004;28;20032;-71
2023/12/19 05:23:10;;;;;;;77.13;45.75;;;102.60;2227.20;;;;;;5051657;28;20140;-73
2023/12/19 05:25:36;;;;;;;65.20;36.97;;;102.60;2227.20;;;;;;5033214;28;20108;-72
2023/12/19 05:28:02;;;;;;;70.82;38.53;;;102.50;2227.20;;;;;;5051332;28;20108;-73
2023/12/19 05:30:27;;;;;;;125.65;64.53;;;102.50;2227.20;;;;;;5050608;28;20020;-73
2023/12/19 05:32:53;;;;;;;48.03;24.58;;;102.40;2227.20;;;;;;5051028;28;20547;-72
2023/12/19 05:35:19;;;;;;;22.27;12.23;;;102.40;2227.20;;;;;;5051076;28;20027;-71
2023/12/19 05:37:45;;;;;;;47.60;26.83;;;102.40;2227.20;;;;;;5050790;28;20032;-71
2023/12/19 05:40:11;;;;;;;21.35;14.20;;;77.70;2227.20;;;;;;5047236;28;20096;-72
2023/12/19 05:42:37;;;;;;;21.40;12.07;;;102.40;2227.20;;;;;;5046723;28;20021;-72
2023/12/19 05:45:03;;;;;;;10.68;5.68;;;102.40;2227.20;;;;;;5051085;28;20473;-72
2023/12/19 05:47:29;;;;;;;14.93;7.78;;;102.40;2227.20;;;;;;5033497;28;20032;-72
2023/12/19 05:49:55;;;;;;;19.77;11.65;;;102.40;2227.20;;;;;;5051143;28;20075;-72
2023/12/19 05:52:21;;;;;;;35.03;18.25;;;102.40;2227.20;;;;;;5050648;28;20538;-71
2023/12/19 05:54:46;;;;;;;27.17;15.48;;;77.60;2227.20;;;;;;5050806;28;20117;-72
2023/12/19 05:57:12;;;;;;;24.42;13.43;;;77.50;2227.20;;;;;;5050743;28;20025;-74
2023/12/19 05:59:39;;;;;;;20.10;11.27;;;77.60;2227.20;;;;;;5050992;28;20035;-72
2023/12/19 06:02:05;;;;;;;24.08;15.23;;;77.60;2227.20;;;;;;5037785;28;20025;-72
2023/12/19 06:04:30;;;;;;;20.33;15.00;;;77.50;2227.20;;;;;;5050719;28;20027;-73
2023/12/19 06:06:56;;;;;;;23.10;13.15;;;77.50;2227.20;;;;;;5050497;28;20029;-72
2023/12/19 06:09:22;;;;;;;28.98;15.00;;;77.50;2227.20;;;;;;5050452;28;20467;-74
2023/12/19 06:11:47;;;;;;;35.15;24.25;;;77.50;2227.20;;;;;;5050841;28;20037;-73
2023/12/19 06:14:13;;;;;;;23.88;17.45;;;77.40;2227.20;;;;;;5043078;28;20017;-75
2023/12/19 06:16:39;;;;;;;15.43;12.82;;;77.50;2227.20;;;;;;5040354;28;20110;-73
2023/12/19 06:19:05;;;;;;;13.95;9.38;;;77.50;2227.20;;;;;;5050395;28;20116;-74
2023/12/19 06:21:31;;;;;;;22.40;12.73;;;77.50;2227.20;;;;;;5050627;28;20021;-75
2023/12/19 06:23:57;;;;;;;26.77;17.88;;;77.60;2227.20;;;;;;5050495;28;20033;-73
2023/12/19 06:26:23;;;;;;;22.67;12.05;;;77.60;2227.20;;;;;;5050412;28;20768;-74
2023/12/19 06:28:49;;;;;;;20.77;12.55;;;77.60;2227.20;;;;;;5050363;28;20029;-74
2023/12/19 06:31:14;;;;;;;26.33;17.58;;;77.70;2227.20;;;;;;5050062;28;20086;-73
2023/12/19 06:33:40;;;;;;;37.10;22.95;;;77.70;2227.20;;;;;;5050146;28;20075;-74
2023/12/19 06:36:06;;;;;;;84.32;43.75;;;102.40;2227.20;;;;;;5050075;28;20056;-73
2023/12/19 06:38:32;;;;;;;31.13;17.90;;;102.40;2227.20;;;;;;5031652;28;20090;-73
2023/12/19 06:40:58;;;;;;;20.30;16.27;;;102.40;2227.20;;;;;;5031706;28;20205;-73
2023/12/19 06:43:24;;;;;;;15.68;11.35;;;102.40;2227.20;;;;;;5043367;28;20037;-71
2023/12/19 06:45:50;;;;;;;110.18;66.30;;;102.40;2227.20;;;;;;5037889;28;20378;-70
2023/12/19 06:48:16;;;;;;;126.32;76.75;;;102.50;2227.20;;;;;;5049686;28;20025;-71
2023/12/19 06:50:42;;;;;;;53.97;33.60;;;102.80;2227.20;;;;;;5049965;28;20033;-71
2023/12/19 06:53:08;;;;;;;70.78;42.78;;;102.90;2227.20;;;;;;5049719;28;20064;-72
2023/12/19 06:55:34;;;;;;;50.08;33.70;;;102.90;2227.20;;;;;;5049717;28;20036;-70
2023/12/19 06:58:00;;;;;;;56.22;36.33;;;102.90;2227.20;;;;;;5050181;28;20493;-72
2023/12/19 07:00:28;;;;;;;60.25;36.65;;;103.00;2227.20;;;;;;5031290;28;20040;-64
2023/12/19 07:02:53;;;;;;;54.78;36.30;;;103.00;2227.20;;;;;;5046785;28;20041;-64
2023/12/19 07:05:19;;;;;;;27.63;18.77;;;103.00;2227.20;;;;;;5031105;28;20036;-62
2023/12/19 07:07:51;;;;;;;26.77;17.15;;;103.00;2227.20;;;;;;5032487;28;20032;-64
2023/12/19 07:10:16;;;;;;;20.65;11.85;;;103.00;2227.20;;;;;;5045124;28;20017;-62
2023/12/19 07:12:42;;;;;;;18.13;12.50;;;103.00;2227.20;;;;;;5049182;28;20082;-63
2023/12/19 07:15:08;;;;;;;13.10;8.13;;;103.00;2227.20;;;;;;5041107;28;20467;-63
2023/12/19 07:17:34;;;;;;;17.70;12.95;;;103.10;2227.20;;;;;;5045164;28;20044;-63
2023/12/19 07:20:00;;;;;;;21.80;16.45;;;103.10;2227.20;;;;;;5048612;28;20422;-63
2023/12/19 07:22:26;;;;;;;17.15;12.52;;;103.10;2227.20;;;;;;5044814;28;20036;-62
2023/12/19 07:24:51;;;;;;;13.68;9.45;;;103.20;2227.20;;;;;;5050490;28;20052;-64
2023/12/19 07:27:17;;;;;;;14.27;8.85;;;103.10;2227.20;;;;;;5042629;28;20087;-63
2023/12/19 07:29:43;;;;;;;13.38;8.73;;;103.20;2227.20;;;;;;5048896;28;20102;-64
2023/12/19 07:32:09;;;;;;;14.00;7.53;;;103.20;2227.20;;;;;;5050704;28;20036;-62
2023/12/19 07:34:35;;;;;;;14.85;11.40;;;103.20;2227.20;;;;;;5049027;28;20014;-63
2023/12/19 07:37:01;;;;;;;12.63;8.88;;;103.30;2227.20;;;;;;5049319;28;20021;-63
2023/12/19 07:39:27;;;;;;;15.10;9.20;;;103.30;2227.20;;;;;;5044528;28;20029;-62
2023/12/19 07:41:53;;;;;;;19.15;11.10;;;103.20;2227.20;;;;;;5049184;28;20044;-63
2023/12/19 07:44:19;;;;;;;25.27;16.27;;;103.20;2227.20;;;;;;5049061;28;20167;-62
2023/12/19 07:46:45;;;;;;;155.52;95.63;;;103.30;2227.20;;;;;;5039404;28;20057;-62
2023/12/19 07:49:12;;;;;;;126.45;79.93;;;128.10;2252.80;;;;;;5030988;28;20110;-62
2023/12/19 07:51:38;;;;;;;67.47;42.58;;;128.20;2252.80;;;;;;5041555;28;20040;-62
2023/12/19 07:54:04;;;;;;;60.03;40.80;;;128.20;2252.80;;;;;;5046676;28;20040;-63
2023/12/19 07:56:30;;;;;;;35.53;21.05;;;128.40;2252.80;;;;;;5053555;28;20092;-62
2023/12/19 07:58:55;;;;;;;45.55;28.15;;;128.50;2252.80;;;;;;5052929;28;20025;-63
2023/12/19 08:01:21;;;;;;;72.68;50.55;;;128.50;2252.80;;;;;;5053269;28;20017;-63
2023/12/19 08:03:47;;;;;;;92.78;61.88;;;128.60;2252.80;;;;;;5053137;28;20028;-62
2023/12/19 08:06:13;;;;;;;55.90;41.08;;;128.60;2252.80;;;;;;5052986;28;20028;-63
2023/12/19 08:08:43;;;;;;;60.28;39.20;;;128.70;2252.80;;;;;;5052867;28;20386;-63
2023/12/19 08:11:09;;;;;;;53.53;36.13;;;128.90;2252.80;;;;;;5052938;28;20029;-62
2023/12/19 08:13:36;;;;;;;60.58;39.42;;;153.60;2252.80;;;;;;5052925;28;20024;-63
2023/12/19 08:16:02;;;;;;;126.72;71.95;;;153.70;2252.80;;;;;;5051894;28;20020;-63
2023/12/19 08:18:27;;;;;;;98.47;65.15;;;153.80;2252.80;;;;;;5041791;28;20029;-62
2023/12/19 08:20:53;;;;;;;113.72;69.60;;;153.90;2252.80;;;;;;5036590;28;20051;-63
2023/12/19 08:23:19;;;;;;;53.13;34.75;;;179.40;2252.80;;;;;;5052390;28;20501;-62
2023/12/19 08:25:44;;;;;;;525.92;300.80;;;180.10;2252.80;;;;;;5051799;28;20467;-63
2023/12/19 08:28:11;;;;;;;411.33;242.75;;;179.90;2252.80;;;;;;5052572;28;20480;-62
2023/12/19 08:30:39;;;;;;;265.00;149.27;;;179.90;2252.80;;;;;;5052280;28;20017;-63
2023/12/19 08:33:05;;;;;;;151.40;97.38;;;180.00;2252.80;;;;;;5051949;28;20079;-63
2023/12/19 08:35:31;;;;;;;128.75;73.32;;;179.90;2252.80;;;;;;5052320;28;20013;-63
2023/12/19 08:37:57;;;;;;;216.40;127.65;;;179.90;2252.80;;;;;;5051942;28;20032;-63
2023/12/19 08:40:23;;;;;;;349.08;203.35;;;205.10;2252.80;;;;;;5051859;28;20013;-63
2023/12/19 08:42:49;;;;;;;383.15;235.00;;;230.90;2252.80;;;;;;5052150;28;20032;-63
2023/12/19 08:45:19;;;;;;;476.98;314.88;;;281.70;2278.40;;;;;;5051729;28;20025;-63
2023/12/19 08:47:46;;;;;;;334.67;229.27;;;333.00;2329.60;;;;;;5051688;28;20032;-63
2023/12/19 08:50:13;;;;;;;266.33;179.60;;;359.10;2201.60;;;;;;5047819;28;20022;-64
2023/12/19 08:52:42;;;;;;;353.50;249.30;;;384.80;2048.00;;;;;;5038669;28;20053;-63
2023/12/19 08:55:10;;;;;;;477.17;386.80;;;359.30;2073.60;;;;;;5050381;28;20028;-63
2023/12/19 08:57:40;;;;;;;524.53;445.30;;;359.30;2099.20;;;;;;5033082;28;20112;-62
2023/12/19 09:00:08;;;;;;;425.73;351.13;;;359.30;2099.20;;;;;;5032976;28;20020;-65
2023/12/19 09:02:33;;;;;;;193.60;154.80;;;409.80;1996.80;;;;;;5051422;28;20463;-63
2023/12/19 09:04:59;;;;;;;173.13;148.35;;;409.90;1945.60;;;;;;5051188;28;20028;-62
2023/12/19 09:07:25;;;;;;;135.18;115.97;;;435.50;1868.80;;;;;;5050922;28;20030;-62
2023/12/19 09:09:54;;;;;;;97.10;83.68;;;435.60;1843.20;;;;;;5047468;28;20025;-63
2023/12/19 09:12:20;;;;;;;154.70;132.52;;;461.00;1817.60;;;;;;5050938;28;20608;-63
2023/12/19 09:14:46;;;;;;;128.25;111.20;;;486.80;1715.20;;;;;;5050643;28;20032;-63
2023/12/19 09:17:12;;;;;;;97.85;82.82;;;512.00;1689.60;;;;;;5051241;28;20029;-64
2023/12/19 09:19:38;;;;;;;103.38;83.13;;;512.00;1638.40;;;;;;5050353;28;20446;-64
2023/12/19 09:22:03;;;;;;;159.25;134.93;;;486.60;1689.60;;;;;;5016045;28;20042;-64
2023/12/19 09:24:30;;;;;;;188.05;156.05;;;461.30;1766.40;;;;;;5037758;28;20498;-62
2023/12/19 09:26:59;;;;;;;171.95;138.95;;;435.80;1817.60;;;;;;5050796;28;20025;-63
2023/12/19 09:29:27;;;;;;;236.07;194.00;;;410.50;1894.40;;;;;;5050765;28;20017;-63
2023/12/19 09:31:54;;;;;;;226.02;180.27;;;384.00;1945.60;;;;;;5032680;28;20056;-63
2023/12/19 09:34:20;;;;;;;228.10;169.57;;;358.60;2048.00;;;;;;5051439;28;20474;-63
2023/12/19 09:36:45;;;;;;;151.40;112.50;;;333.70;2099.20;;;;;;5051192;28;20055;-63
2023/12/19 09:39:14;;;;;;;215.48;145.13;;;333.10;2176.00;;;;;;5051307;28;20028;-62
2023/12/19 09:41:41;;;;;;;390.17;234.02;;;308.00;2227.20;;;;;;5051267;28;20063;-63
2023/12/19 09:44:07;;;;;;;279.75;187.95;;;307.80;2252.80;;;;;;5051368;28;20028;-63
2023/12/19 09:46:34;;;;;;;313.27;239.73;;;307.50;2304.00;;;;;;5051134;28;20036;-63
2023/12/19 09:49:03;;;;;;;294.77;232.73;;;307.20;2304.00;;;;;;5051149;28;20025;-63
2023/12/19 09:51:32;;;;;;;287.25;220.48;;;282.40;2278.40;;;;;;5050536;28;20044;-64
2023/12/19 09:54:00;;;;;;;259.60;211.77;;;282.30;2278.40;;;;;;5024808;28;20048;-62
2023/12/19 09:56:27;;;;;;;241.73;179.63;;;282.30;2278.40;;;;;;5046890;28;20376;-63
2023/12/19 09:59:00;;;;;;;187.52;134.38;;;282.20;2278.40;;;;;;5050742;28;20028;-63
2023/12/19 10:01:26;;;;;;;132.52;93.63;;;282.00;2278.40;;;;;;5050899;28;20114;-63
2023/12/19 10:03:55;;;;;;;128.13;85.80;;;282.00;2278.40;;;;;;5050497;28;20049;-63
2023/12/19 10:06:22;;;;;;;114.20;84.13;;;282.10;2278.40;;;;;;5050867;28;20494;-63
2023/12/19 10:08:53;;;;;;;85.20;60.53;;;282.20;2278.40;;;;;;5050852;28;20032;-63
2023/12/19 10:11:24;;;;;;;66.93;43.72;;;282.50;2252.80;;;;;;5050552;28;20037;-62
2023/12/19 10:13:50;;;;;;;66.40;47.80;;;307.20;2252.80;;;;;;5050922;28;20227;-63
2023/12/19 10:16:19;;;;;;;36.85;26.20;;;282.50;2227.20;;;;;;5049878;28;20114;-62
2023/12/19 10:18:54;;;;;;;64.65;46.20;;;282.50;2227.20;;;;;;5050679;28;20027;-62
2023/12/19 10:21:24;;;;;;;81.78;57.22;;;282.50;2227.20;;;;;;5037436;28;20363;-62
2023/12/19 10:23:50;;;;;;;82.03;58.83;;;282.50;2252.80;;;;;;5050422;28;20183;-62
2023/12/19 10:26:22;;;;;;;88.35;64.57;;;282.30;2278.40;;;;;;5050191;28;20021;-62
2023/12/19 10:28:56;;;;;;;75.00;54.97;;;282.40;2278.40;;;;;;5050379;28;20036;-62
2023/12/19 10:31:24;;;;;;;102.70;76.93;;;282.50;2278.40;;;;;;5040061;28;20029;-63
2023/12/19 10:33:56;;;;;;;110.55;81.20;;;282.50;2278.40;;;;;;5046497;28;20466;-62
2023/12/19 10:36:30;;;;;;;105.30;73.85;;;307.20;2304.00;;;;;;5049964;28;20103;-63
2023/12/19 10:39:01;;;;;;;119.57;78.13;;;282.50;2252.80;;;;;;5050220;28;20108;-63
2023/12/19 10:41:31;;;;;;;32.20;19.73;;;307.20;2278.40;;;;;;5050094;28;20021;-62
2023/12/19 10:43:59;;;;;;;89.28;67.80;;;307.20;2227.20;;;;;;5050386;28;20044;-62
2023/12/19 10:46:28;;;;;;;60.58;42.38;;;307.20;2278.40;;;;;;5050035;28;20017;-62
2023/12/19 10:48:57;;;;;;;131.05;98.25;;;307.20;2227.20;;;;;;5049903;28;20024;-63
2023/12/19 10:51:37;;;;;;;137.73;105.07;;;307.20;2304.00;;;;;;5049410;28;20120;-63
2023/12/19 10:54:15;;;;;;;130.38;99.97;;;307.20;2304.00;;;;;;5049923;28;20152;-63
2023/12/19 10:57:02;;;;;;;116.05;88.70;;;307.40;2304.00;;;;;;5049698;28;20023;-62
2023/12/19 10:59:46;;;;;;;153.65;119.07;;;307.50;2278.40;;;;;;5049791;28;20075;-62
2023/12/19 11:02:51;;;;;;;146.13;108.47;;;307.50;2304.00;;;;;;5049621;28;20525;-64
2023/12/19 11:05:42;;;;;;;113.70;87.20;;;307.50;2304.00;;;;;;5038495;28;20028;-63
2023/12/19 11:08:17;;;;;;;86.82;68.07;;;307.50;2304.00;;;;;;5042344;28;20348;-64
2023/12/19 11:11:01;;;;;;;116.82;90.60;;;307.50;2304.00;;;;;;5042911;28;20478;-64
2023/12/19 11:13:28;;;;;;;103.43;82.72;;;307.60;2304.00;;;;;;5038344;28;20035;-63
2023/12/19 11:16:03;;;;;;;101.60;78.25;;;307.70;2304.00;;;;;;5049074;28;20497;-63
2023/12/19 11:18:32;;;;;;;102.03;76.00;;;307.80;2304.00;;;;;;5049710;28;20037;-63
2023/12/19 11:21:05;;;;;;;119.57;91.07;;;307.80;2304.00;;;;;;5049610;28;20045;-62
2023/12/19 11:24:00;;;;;;;123.22;92.55;;;307.80;2304.00;;;;;;5049435;28;20028;-63
2023/12/19 11:26:48;;;;;;;118.10;87.25;;;307.80;2304.00;;;;;;5049141;28;20059;-62
2023/12/19 11:29:46;;;;;;;102.97;73.20;;;307.90;2304.00;;;;;;5049064;28;20040;-63
2023/12/19 11:32:26;;;;;;;123.93;91.32;;;308.00;2278.40;;;;;;5049028;28;20025;-63
2023/12/19 11:34:53;;;;;;;118.97;80.65;;;308.10;2278.40;;;;;;5049080;28;20082;-63
2023/12/19 11:37:22;;;;;;;88.40;63.60;;;332.80;2329.60;;;;;;5048990;28;20547;-62
2023/12/19 11:39:48;;;;;;;80.03;54.75;;;332.80;2304.00;;;;;;5049541;28;20420;-62
2023/12/19 11:42:39;;;;;;;85.80;60.40;;;332.90;2304.00;;;;;;5049086;28;20028;-63
2023/12/19 11:45:19;;;;;;;107.63;73.40;;;332.90;2252.80;;;;;;5043616;28;20030;-63
2023/12/19 11:47:47;;;;;;;101.00;68.22;;;333.00;2252.80;;;;;;5040487;28;20451;-63
2023/12/19 11:50:39;;;;;;;170.82;116.22;;;333.00;2278.40;;;;;;5049134;28;20017;-63
2023/12/19 11:53:05;;;;;;;106.28;68.35;;;333.00;2278.40;;;;;;5048652;28;20045;-63
2023/12/19 11:55:31;;;;;;;114.40;68.10;;;333.00;2278.40;;;;;;5050228;28;20118;-64
2023/12/19 11:58:13;;;;;;;139.80;88.55;;;333.10;2252.80;;;;;;5049963;28;20033;-63
2023/12/19 12:00:40;;;;;;;120.97;74.90;;;333.20;2252.80;;;;;;5049661;28;20025;-64